Terminal Aerodrome Forecast
Issued by NWS Shreveport, LA

Home | Current Version | Previous Version | Text Only | Print | Product List | Glossary On
Versions: 1 2 3 4 5 6 7 8 9 10 11 12 13 14 15 16 17
000
FTUS44 KSHV 031735
TAFLFK
TAF
KLFK 031735Z 0318/0418 23007KT P6SM SCT040 BKN180 BKN250
     FM040000 20005KT P6SM VCTS SCT050CB SCT180 BKN250
     FM040600 17003KT P6SM SCT050 SCT100 BKN250
      TEMPO 0412/0416 5SM HZ BKN010
     FM041600 22008KT P6SM SCT030 SCT100 SCT250=

USA.gov is the U.S. government's official web portal to all federal, state and local government web resources and services.